Airfield :
LOGIN :

Register | Disclaimer

   EN    FR    IT 

 










Legend :    VFR   Marginal VFR   IFR   Intensive IFR   Very Intensive IFR
Visi :
Ceiling :
>= 8 km
>= 3000ft
5 to 8 km
1000 to 3000 ft
1500m to 5 km
500 to 1000 ft
800 to 1500m
200 to 500 ft
< 800m
< 200 ft
Symbols :   Thunderstorms  Fog  Heavy snow  Heavy precipitations  Wind > 20 kt
SIGMETs :     Misc.  Thunderstorms  Icing  Turbulence  Mountain Waves  Volcanic Ashes






- Airport Elevation : 218 ft
- IATA code : LBG


LFPB - Paris / Le Bourget

CURRENT METAR :
  • 271800Z AUTO 30010KT 260V330 CAVOK 06/M00 Q1010 TEMPO 31015G30KT

EXPIRED METARs :
  • 271730Z AUTO 30015G26KT 270V340 9999 FEW038 SCT048 06/M01 Q1009 BECMG 31015KT
  • 271700Z AUTO 30014KT 260V330 9999 BKN036 BKN043 07/00 Q1007 TEMPO 31015G30KT
  • 271630Z AUTO 30013KT 270V340 9999 FEW022 BKN030 BKN036 07/01 Q1007 TEMPO 31015G30KT
  • 271600Z AUTO 31018G32KT 260V330 9999 BKN030 BKN037 OVC044 07/01 Q1005 NOSIG
  • 271530Z AUTO 30019G34KT 270V330 9999 BKN029 OVC034 07/01 Q1003 NOSIG

TAF TAF LFPB
Valid from the 27 at 18:00 until the 28 at 18:00 UTC


271700Z 2718/2818 31015KT 9999 BKN035
TEMPO 2718/2719 31015G30KT
BECMG 2811/2813 18015G25KT 4000 -RA OVC014
BECMG 2814/2816 OVC010
TEMPO 2816/2818 BKN005
ATIS : +33 1 48 62 43 92



MET'MAP, your aeronautical weather chart ! - Copyright ORBIFLY December 2007 - Disclaimer

ORBIFLY MET'MAP TEAM :

Programming & Development : Alexandra Zaïnal
Concept & original design : Baudouin d'Aumeries
Assistance for programming : Marc-Olivier Méhu
Technical & hardware support : Manuel Goepfert

Contact : metmap@orbifly.com




SOURCES & CREDITS :

   NOAA